Time;durP1;ratioP1;P1;durP2;ratioP2;P2;SDS_P1;SDS_P2;PMS_P1;PMS_P2;Temp;Humidity;BMP_temperature;BMP_pressure;BME280_temperature;BME280_humidity;BME280_pressure;Samples;Min_cycle;Max_cycle;Signal;HPM_P1;HPM_P2
2023/01/29 00:01:56;;;;;;;24.77;12.30;;;;;;;1.90;80.13;101459.25;5030848;28;20061;-75
2023/01/29 00:04:22;;;;;;;27.08;14.07;;;;;;;1.85;80.83;101456.91;5039712;28;20033;-75
2023/01/29 00:06:48;;;;;;;25.10;13.23;;;;;;;1.84;81.42;101459.56;5028799;28;20025;-74
2023/01/29 00:09:13;;;;;;;30.23;14.15;;;;;;;1.83;80.71;101455.31;5034330;28;20036;-75
2023/01/29 00:11:39;;;;;;;27.27;13.70;;;;;;;1.86;80.65;101460.31;5028116;28;20041;-74
2023/01/29 00:14:05;;;;;;;24.92;14.02;;;;;;;1.89;81.01;101460.19;5032334;28;20032;-75
2023/01/29 00:16:31;;;;;;;28.13;14.20;;;;;;;1.89;81.08;101461.00;5029700;28;20033;-75
2023/01/29 00:18:56;;;;;;;22.45;12.60;;;;;;;1.88;81.70;101463.66;5033319;28;20032;-74
2023/01/29 00:21:22;;;;;;;22.13;13.15;;;;;;;1.85;82.02;101467.19;5032191;28;20577;-75
2023/01/29 00:23:48;;;;;;;25.92;13.70;;;;;;;1.84;82.26;101462.13;5030727;28;20030;-75
2023/01/29 00:26:14;;;;;;;25.33;14.20;;;;;;;1.82;82.29;101467.31;5029956;28;20032;-75
2023/01/29 00:28:40;;;;;;;29.98;15.02;;;;;;;1.82;82.81;101469.06;5031845;28;20124;-75
2023/01/29 00:31:10;;;;;;;29.15;14.43;;;;;;;1.81;82.35;101462.25;5031819;28;20039;-75
2023/01/29 00:33:36;;;;;;;24.55;13.85;;;;;;;1.83;82.53;101465.59;5029969;28;20045;-75
2023/01/29 00:36:04;;;;;;;27.50;15.13;;;;;;;1.83;82.56;101468.16;5034344;28;20110;-75
2023/01/29 00:38:29;;;;;;;23.42;14.23;;;;;;;1.83;83.15;101481.00;5030938;28;20079;-75
2023/01/29 00:46:22;;;;;;;23.15;12.40;;;;;;;1.79;83.63;101474.31;5029815;28;20049;-74
2023/01/29 00:48:48;;;;;;;32.08;15.63;;;;;;;1.82;82.16;101469.91;5028643;28;20038;-75
2023/01/29 00:51:13;;;;;;;27.50;12.88;;;;;;;1.86;81.51;101474.00;5030059;28;20017;-75
2023/01/29 00:53:38;;;;;;;29.67;14.70;;;;;;;1.88;81.65;101473.94;5030801;28;20059;-75
2023/01/29 00:56:04;;;;;;;29.52;13.57;;;;;;;1.87;81.96;101478.25;5033757;28;20031;-75
2023/01/29 00:58:33;;;;;;;24.83;13.18;;;;;;;1.83;82.74;101478.44;5029932;28;20033;-75
2023/01/29 01:01:00;;;;;;;26.33;11.95;;;;;;;1.81;82.89;101473.38;5033900;28;20041;-75
2023/01/29 01:03:26;;;;;;;26.80;13.45;;;;;;;1.82;82.64;101479.34;5030865;28;20036;-75
2023/01/29 01:06:05;;;;;;;23.50;11.60;;;;;;;1.80;83.35;101476.00;5031774;28;20033;-75
2023/01/29 01:11:15;;;;;;;17.50;10.15;;;;;;;1.73;83.32;101479.72;5034690;28;20232;-75
2023/01/29 01:13:40;;;;;;;17.45;9.13;;;;;;;1.75;83.11;101483.06;5028326;28;20037;-75
2023/01/29 01:16:14;;;;;;;17.08;8.90;;;;;;;1.76;83.73;101485.56;5034290;28;20033;-75
2023/01/29 01:18:40;;;;;;;17.15;10.13;;;;;;;1.77;83.73;101491.53;5030952;28;20040;-75
2023/01/29 01:21:06;;;;;;;15.32;10.00;;;;;;;1.77;83.95;101494.09;5030939;28;20045;-74
2023/01/29 01:23:31;;;;;;;20.35;10.07;;;;;;;1.76;84.15;101484.72;5033455;28;20448;-75
2023/01/29 01:25:57;;;;;;;16.80;9.38;;;;;;;1.67;84.88;101491.91;5028188;28;20136;-75
2023/01/29 01:28:23;;;;;;;16.80;9.50;;;;;;;1.68;84.80;101482.47;5038074;28;20116;-75
2023/01/29 01:30:48;;;;;;;17.17;9.57;;;;;;;1.66;84.58;101495.38;5031107;28;20127;-75
2023/01/29 01:33:14;;;;;;;17.08;9.55;;;;;;;1.67;84.53;101491.91;5038520;28;20028;-75
2023/01/29 01:35:39;;;;;;;18.83;9.07;;;;;;;1.69;84.42;101501.28;5028547;28;20506;-75
2023/01/29 01:38:05;;;;;;;16.75;8.75;;;;;;;1.69;82.81;101494.41;5025913;28;20056;-75
2023/01/29 01:40:30;;;;;;;18.75;9.45;;;;;;;1.76;82.94;101495.00;5029188;28;20069;-75
2023/01/29 01:42:59;;;;;;;14.45;8.02;;;;;;;1.82;81.77;101497.31;5026969;28;20179;-75
2023/01/29 01:45:33;;;;;;;16.20;9.05;;;;;;;1.82;82.45;101498.16;5028258;28;20036;-74
2023/01/29 01:48:13;;;;;;;13.27;8.27;;;;;;;1.82;81.43;101500.72;5032279;28;20146;-74
2023/01/29 01:50:48;;;;;;;15.70;8.50;;;;;;;1.84;81.78;101498.09;5030243;28;20038;-74
2023/01/29 01:53:21;;;;;;;18.65;8.98;;;;;;;1.83;82.21;101494.69;5032817;28;20030;-74
2023/01/29 01:55:51;;;;;;;16.08;8.27;;;;;;;1.81;82.65;101493.09;5031519;28;20021;-74
2023/01/29 01:58:49;;;;;;;16.23;8.32;;;;;;;1.76;84.07;101495.84;5038148;28;20096;-74
2023/01/29 02:01:15;;;;;;;15.05;7.93;;;;;;;1.76;84.38;101498.41;5037999;28;20540;-74
2023/01/29 02:10:02;;;;;;;15.43;8.15;;;;;;;1.69;85.63;101494.41;5032795;28;20044;-74
2023/01/29 02:12:30;;;;;;;16.95;9.35;;;;;;;1.70;85.01;101495.25;5038159;28;20045;-74
2023/01/29 02:14:56;;;;;;;17.00;8.70;;;;;;;1.67;84.89;101497.03;5033711;28;20037;-74
2023/01/29 02:17:21;;;;;;;17.38;9.55;;;;;;;1.69;86.01;101491.00;5033666;28;20086;-74
2023/01/29 02:19:53;;;;;;;16.13;8.57;;;;;;;1.69;85.77;101494.41;5030317;28;20053;-74
2023/01/29 02:22:44;;;;;;;18.20;9.02;;;;;;;1.70;86.14;101492.69;5032377;28;20373;-74
2023/01/29 02:25:47;;;;;;;16.63;9.32;;;;;;;1.69;86.93;101488.44;5038625;28;20037;-74
2023/01/29 02:28:52;;;;;;;16.85;9.52;;;;;;;1.67;86.31;101491.91;5038528;28;20027;-74
2023/01/29 02:31:36;;;;;;;15.98;8.93;;;;;;;1.68;86.19;101490.19;5029281;28;20172;-74
2023/01/29 02:34:12;;;;;;;16.02;9.77;;;;;;;1.68;86.85;101492.75;5013665;28;20116;-74
2023/01/29 02:36:53;;;;;;;16.65;9.32;;;;;;;1.66;86.80;101497.94;5026811;28;20498;-74
2023/01/29 02:39:24;;;;;;;21.58;11.02;;;;;;;1.67;86.53;101506.50;5028013;28;20392;-74
2023/01/29 02:41:59;;;;;;;18.75;9.55;;;;;;;1.66;86.91;101503.09;5037710;28;20069;-74
2023/01/29 02:44:41;;;;;;;19.50;9.63;;;;;;;1.66;87.26;101507.38;5040046;28;20041;-74
2023/01/29 02:47:34;;;;;;;16.02;9.40;;;;;;;1.60;88.22;101508.47;5030193;28;20044;-74
2023/01/29 02:50:09;;;;;;;18.48;9.68;;;;;;;1.60;88.46;101513.59;5031499;28;20029;-74
2023/01/29 02:52:43;;;;;;;16.80;9.40;;;;;;;1.60;87.79;101526.44;5032126;28;20033;-74
2023/01/29 02:55:20;;;;;;;17.90;9.38;;;;;;;1.61;86.77;101522.16;5030576;28;20092;-74
2023/01/29 02:57:48;;;;;;;19.10;10.00;;;;;;;1.63;86.76;101521.19;5028506;28;20203;-74
2023/01/29 03:00:23;;;;;;;21.73;10.82;;;;;;;1.66;86.84;101526.22;5032760;28;20041;-74
2023/01/29 03:03:12;;;;;;;18.25;9.85;;;;;;;1.67;87.52;101527.88;5028486;28;20037;-74
2023/01/29 03:05:58;;;;;;;19.42;9.45;;;;;;;1.62;87.29;101534.94;5035809;28;20037;-74
2023/01/29 03:08:44;;;;;;;20.92;10.13;;;;;;;1.62;87.70;101534.94;5027156;28;20128;-74
2023/01/29 03:11:14;;;;;;;16.70;9.10;;;;;;;1.56;86.90;101535.16;5036106;28;20033;-74
2023/01/29 03:14:07;;;;;;;16.58;8.63;;;;;;;1.60;86.83;101536.72;5036570;28;20060;-74
2023/01/29 03:16:32;;;;;;;17.60;9.00;;;;;;;1.65;87.51;101531.41;5029305;28;20119;-74
2023/01/29 03:19:06;;;;;;;15.45;8.00;;;;;;;1.65;87.55;101527.09;5037190;28;20496;-74
2023/01/29 03:21:58;;;;;;;16.40;8.02;;;;;;;1.64;87.42;101522.84;5031056;28;20524;-74
2023/01/29 03:33:19;;;;;;;14.60;7.88;;;;;;;1.55;89.35;101538.63;5043399;28;20043;-74
2023/01/29 03:35:50;;;;;;;14.50;8.27;;;;;;;1.56;87.90;101544.59;5023838;28;20439;-74
2023/01/29 03:38:16;;;;;;;15.23;7.75;;;;;;;1.60;88.17;101536.72;5043161;28;20170;-74
2023/01/29 03:40:50;;;;;;;16.63;8.63;;;;;;;1.60;87.81;101531.59;5037833;28;20136;-74
2023/01/29 03:43:49;;;;;;;17.13;8.15;;;;;;;1.59;88.23;101534.22;5040848;28;20464;-74
2023/01/29 03:46:35;;;;;;;15.20;8.32;;;;;;;1.58;88.92;101523.09;5030243;28;20477;-74
2023/01/29 03:49:29;;;;;;;15.13;7.68;;;;;;;1.58;89.44;101522.28;5029711;28;20048;-74
2023/01/29 03:52:12;;;;;;;12.95;7.30;;;;;;;1.57;90.22;101524.00;5031427;28;20042;-74
2023/01/29 03:54:50;;;;;;;15.70;8.02;;;;;;;1.56;90.14;101522.31;5033806;28;20435;-74
2023/01/29 03:57:26;;;;;;;13.68;7.60;;;;;;;1.55;89.55;101530.94;5026446;28;20497;-74
2023/01/29 03:59:59;;;;;;;15.95;8.40;;;;;;;1.53;89.53;101535.28;5032576;28;20053;-74
2023/01/29 04:02:37;;;;;;;16.83;8.93;;;;;;;1.53;89.11;101540.44;5040469;28;20044;-74
2023/01/29 04:05:12;;;;;;;13.70;7.65;;;;;;;1.52;89.83;101537.91;5032198;28;20053;-74
2023/01/29 04:07:40;;;;;;;15.90;8.63;;;;;;;1.53;90.16;101537.88;5035757;28;20045;-74
2023/01/29 04:10:14;;;;;;;16.08;7.40;;;;;;;1.52;90.50;101537.91;5036651;28;20033;-74
2023/01/29 04:13:05;;;;;;;17.15;8.50;;;;;;;1.52;90.74;101543.06;5031654;28;20033;-74
2023/01/29 04:15:37;;;;;;;16.80;8.50;;;;;;;1.51;90.56;101542.22;5032579;28;20551;-75
2023/01/29 04:18:03;;;;;;;15.48;8.27;;;;;;;1.49;90.78;101546.59;5032186;28;20033;-75
2023/01/29 04:20:29;;;;;;;13.95;7.32;;;;;;;1.51;91.04;101546.53;5029400;28;20037;-75
2023/01/29 04:22:54;;;;;;;12.82;6.97;;;;;;;1.51;91.47;101544.78;5028877;28;20049;-75
2023/01/29 04:25:25;;;;;;;13.80;7.28;;;;;;;1.50;91.69;101548.25;5031866;28;20032;-74
2023/01/29 04:27:50;;;;;;;12.02;7.30;;;;;;;1.51;91.82;101541.38;5032973;28;20109;-74
2023/01/29 04:30:21;;;;;;;12.60;7.88;;;;;;;1.50;91.91;101539.72;5026776;28;20034;-74
2023/01/29 04:33:04;;;;;;;15.32;7.75;;;;;;;1.48;92.16;101541.50;5035333;28;20086;-75
2023/01/29 04:35:30;;;;;;;15.75;8.40;;;;;;;1.47;92.39;101543.22;5031401;28;20444;-74
2023/01/29 04:38:07;;;;;;;15.75;7.93;;;;;;;1.48;91.91;101542.34;5032936;28;20049;-75
2023/01/29 04:40:44;;;;;;;14.10;8.43;;;;;;;1.49;91.40;101538.88;5032484;28;20141;-75
2023/01/29 04:43:12;;;;;;;16.17;8.93;;;;;;;1.53;91.59;101540.44;5028790;28;20053;-74
2023/01/29 04:46:03;;;;;;;14.32;7.65;;;;;;;1.53;90.79;101539.59;5031531;28;20036;-74
2023/01/29 04:48:38;;;;;;;14.07;7.30;;;;;;;1.57;90.81;101538.56;5035157;28;20064;-74
2023/01/29 04:51:23;;;;;;;12.63;6.60;;;;;;;1.57;90.50;101534.28;5034328;28;20072;-75
2023/01/29 04:53:59;;;;;;;13.77;7.43;;;;;;;1.61;90.50;101542.69;5038355;28;20046;-76
2023/01/29 04:56:27;;;;;;;11.77;6.38;;;;;;;1.59;90.29;101539.34;5037959;28;20032;-76
2023/01/29 04:59:06;;;;;;;13.00;7.63;;;;;;;1.61;90.19;101535.00;5038354;28;20061;-75
2023/01/29 05:01:34;;;;;;;11.50;6.65;;;;;;;1.59;90.70;101527.34;5033557;28;20053;-76
2023/01/29 05:04:09;;;;;;;11.50;6.53;;;;;;;1.58;90.74;101527.41;5036121;28;20108;-76
2023/01/29 05:06:36;;;;;;;11.57;6.15;;;;;;;1.58;90.87;101525.69;5036788;28;20029;-75
2023/01/29 05:09:02;;;;;;;11.80;6.97;;;;;;;1.58;90.96;101523.09;5036792;28;20108;-75
2023/01/29 05:11:31;;;;;;;13.38;7.38;;;;;;;1.58;91.45;101517.13;5042492;28;20032;-75
2023/01/29 05:13:57;;;;;;;16.25;8.68;;;;;;;1.63;90.66;101528.91;5036849;28;20029;-76
2023/01/29 05:16:26;;;;;;;12.00;6.65;;;;;;;1.66;89.78;101541.63;5032455;28;20025;-75
2023/01/29 05:18:52;;;;;;;13.32;7.28;;;;;;;1.69;89.36;101530.38;5037607;28;20083;-75
2023/01/29 05:21:19;;;;;;;11.52;6.80;;;;;;;1.71;89.10;101523.44;5036112;28;20033;-76
2023/01/29 05:23:52;;;;;;;12.73;6.68;;;;;;;1.72;88.57;101529.44;5037426;28;20591;-76
2023/01/29 05:29:04;;;;;;;;;;;;;;;1.67;86.99;101537.31;5031526;28;20060;-75
2023/01/29 05:31:29;;;;;;;11.97;6.23;;;;;;;1.67;88.30;101538.16;5031917;28;20364;-75
2023/01/29 05:33:54;;;;;;;12.05;6.75;;;;;;;1.66;88.57;101546.75;5035830;28;20033;-75
2023/01/29 05:36:20;;;;;;;12.27;5.80;;;;;;;1.67;88.26;101545.84;5028012;28;20061;-74
2023/01/29 05:38:45;;;;;;;11.82;5.53;;;;;;;1.79;87.39;101557.38;5028089;28;20465;-75
2023/01/29 05:41:11;;;;;;;11.82;6.55;;;;;;;1.93;85.11;101546.53;5031190;28;20053;-74
2023/01/29 05:43:36;;;;;;;14.38;9.40;;;;;;;2.03;84.35;101555.53;5035409;28;20037;-75
2023/01/29 05:46:03;;;;;;;11.73;6.70;;;;;;;2.05;84.35;101556.31;5029684;28;20048;-74
2023/01/29 05:48:30;;;;;;;11.50;7.15;;;;;;;2.04;84.35;101553.78;5028168;28;20056;-75
2023/01/29 05:51:03;;;;;;;12.23;6.88;;;;;;;2.01;83.85;101554.75;5035196;28;20044;-75
2023/01/29 05:53:29;;;;;;;13.43;7.80;;;;;;;1.96;84.41;101554.09;5027069;28;20033;-74
2023/01/29 05:55:56;;;;;;;14.52;7.57;;;;;;;1.93;84.55;101554.22;5033987;28;20083;-74
2023/01/29 05:58:21;;;;;;;13.35;7.05;;;;;;;1.91;84.91;101556.03;5025384;28;20111;-75
2023/01/29 06:00:47;;;;;;;10.77;6.03;;;;;;;1.85;85.92;101551.16;5018311;28;20124;-74
2023/01/29 06:03:12;;;;;;;11.55;6.45;;;;;;;1.80;86.16;101558.22;5020360;28;20040;-75
2023/01/29 06:05:38;;;;;;;12.15;6.72;;;;;;;1.75;86.52;101560.13;5036381;28;20109;-74
2023/01/29 06:08:04;;;;;;;12.30;5.82;;;;;;;1.71;86.72;101562.00;5030112;28;20133;-75
2023/01/29 06:10:30;;;;;;;14.25;6.63;;;;;;;1.69;86.69;101560.38;5033609;28;20560;-75
2023/01/29 06:12:55;;;;;;;11.90;5.90;;;;;;;1.71;86.99;101556.00;5032380;28;20051;-75
2023/01/29 06:15:20;;;;;;;10.63;6.22;;;;;;;1.69;87.03;101558.66;5040120;28;20033;-75
2023/01/29 06:17:46;;;;;;;12.15;6.68;;;;;;;1.66;88.17;101566.47;5029460;28;20439;-75
2023/01/29 06:20:12;;;;;;;13.95;7.20;;;;;;;1.62;88.27;101582.91;5031803;28;20515;-74
2023/01/29 06:22:38;;;;;;;12.23;6.13;;;;;;;1.58;88.49;101577.03;5037445;28;20037;-75
2023/01/29 06:25:04;;;;;;;10.98;7.10;;;;;;;1.54;89.07;101578.06;5038398;28;20028;-74
2023/01/29 06:27:29;;;;;;;12.50;7.00;;;;;;;1.53;89.43;101578.97;5040868;28;20052;-75
2023/01/29 06:29:54;;;;;;;12.48;7.15;;;;;;;1.53;89.11;101578.97;5038438;28;20052;-74
2023/01/29 06:32:20;;;;;;;13.20;6.43;;;;;;;1.53;88.85;101571.25;5036051;28;20136;-75
2023/01/29 06:34:46;;;;;;;11.38;7.20;;;;;;;1.49;89.01;101574.84;5032487;28;20111;-75
2023/01/29 06:37:11;;;;;;;14.73;6.78;;;;;;;1.49;88.95;101574.00;5032541;28;20209;-75
2023/01/29 06:39:36;;;;;;;12.63;7.45;;;;;;;1.43;89.65;101575.06;5032883;28;20112;-75
2023/01/29 06:42:02;;;;;;;15.38;6.80;;;;;;;1.38;89.71;101586.44;5036895;28;20033;-74
2023/01/29 06:44:27;;;;;;;12.43;6.78;;;;;;;1.37;89.74;101587.34;5037653;28;20049;-75
2023/01/29 06:46:53;;;;;;;12.15;7.22;;;;;;;1.35;89.99;101589.97;5033405;28;20029;-74
2023/01/29 06:49:18;;;;;;;13.90;7.22;;;;;;;1.36;90.03;101599.34;5039935;28;20080;-75
2023/01/29 06:51:43;;;;;;;13.45;7.57;;;;;;;1.39;89.12;101600.97;5037548;28;20372;-74
2023/01/29 06:54:09;;;;;;;14.75;7.45;;;;;;;1.43;89.55;101605.88;5038325;28;20034;-74
2023/01/29 06:56:35;;;;;;;13.18;7.68;;;;;;;1.47;89.04;101606.59;5038597;28;20476;-74
2023/01/29 06:59:01;;;;;;;13.60;6.68;;;;;;;1.52;88.82;101613.25;5037544;28;20026;-75
2023/01/29 07:01:26;;;;;;;12.93;7.25;;;;;;;1.54;88.73;101614.03;5032495;28;20053;-75
2023/01/29 07:03:52;;;;;;;11.63;7.10;;;;;;;1.60;88.78;101612.94;5037607;28;20036;-75
2023/01/29 07:06:18;;;;;;;13.13;7.43;;;;;;;1.63;89.66;101613.66;5039151;28;20361;-75
2023/01/29 07:08:43;;;;;;;13.00;7.38;;;;;;;1.67;90.06;101614.38;5030052;28;20111;-75
2023/01/29 07:11:09;;;;;;;16.38;8.75;;;;;;;1.69;90.34;101622.88;5030842;28;20030;-74
2023/01/29 07:13:35;;;;;;;19.52;7.78;;;;;;;1.73;90.74;101628.75;5036136;28;20029;-74
2023/01/29 07:16:01;;;;;;;16.92;8.07;;;;;;;1.76;91.12;101628.63;5036978;28;20449;-75
2023/01/29 07:18:27;;;;;;;16.15;8.90;;;;;;;1.81;90.85;101627.53;5030777;28;20468;-75
2023/01/29 07:20:53;;;;;;;15.90;10.00;;;;;;;1.88;90.13;101635.84;5033401;28;20049;-75
2023/01/29 07:23:18;;;;;;;15.50;9.70;;;;;;;1.92;89.91;101640.78;5030801;28;20083;-75
2023/01/29 07:25:44;;;;;;;17.02;10.55;;;;;;;1.95;89.70;101645.81;5033422;28;20026;-75
2023/01/29 07:28:09;;;;;;;19.95;10.70;;;;;;;1.99;88.69;101641.38;5032521;28;20064;-75
2023/01/29 07:30:35;;;;;;;14.93;8.95;;;;;;;2.02;88.28;101643.81;5031165;28;20028;-75
2023/01/29 07:33:10;;;;;;;17.17;9.07;;;;;;;2.08;88.22;101651.28;5032512;28;20041;-74
2023/01/29 07:35:37;;;;;;;14.45;8.68;;;;;;;2.10;87.69;101652.06;5028880;28;20025;-75
2023/01/29 07:38:03;;;;;;;12.95;7.53;;;;;;;2.14;87.97;101651.06;5031622;28;20421;-75
2023/01/29 07:40:28;;;;;;;15.40;7.22;;;;;;;2.17;87.68;101656.06;5028825;28;20043;-75
2023/01/29 07:43:01;;;;;;;13.80;8.05;;;;;;;2.20;87.30;101661.09;5026613;28;20033;-74
2023/01/29 07:45:28;;;;;;;13.98;7.10;;;;;;;2.25;87.64;101659.19;5031306;28;20029;-74
2023/01/29 07:47:54;;;;;;;11.80;6.90;;;;;;;2.31;87.23;101660.66;5032185;28;20033;-75
2023/01/29 07:50:24;;;;;;;12.77;7.40;;;;;;;2.36;86.47;101657.91;5035679;28;20111;-75
2023/01/29 07:52:50;;;;;;;14.55;7.97;;;;;;;2.43;86.52;101667.00;5038665;28;20089;-74
2023/01/29 07:55:16;;;;;;;12.75;7.72;;;;;;;2.47;85.32;101651.41;5035743;28;20032;-74
2023/01/29 07:57:42;;;;;;;16.02;8.07;;;;;;;2.53;85.27;101653.72;5029542;28;20037;-74
2023/01/29 08:00:10;;;;;;;13.73;8.13;;;;;;;2.61;84.84;101650.81;5035668;28;20545;-74
2023/01/29 08:02:35;;;;;;;14.57;7.22;;;;;;;2.68;84.76;101652.25;5031051;28;20040;-75
2023/01/29 08:05:01;;;;;;;11.35;6.22;;;;;;;2.74;82.98;101651.16;5037120;28;20028;-74
2023/01/29 08:07:26;;;;;;;9.98;6.50;;;;;;;2.78;82.70;101650.13;5038704;28;20091;-74
2023/01/29 08:09:52;;;;;;;10.38;6.55;;;;;;;2.80;82.42;101653.47;5025185;28;20064;-73
2023/01/29 08:12:17;;;;;;;10.40;5.82;;;;;;;2.81;82.12;101648.25;5041070;28;20028;-74
2023/01/29 08:14:44;;;;;;;13.10;6.13;;;;;;;2.84;81.78;101653.22;5032399;28;20056;-73
2023/01/29 08:17:10;;;;;;;10.48;6.50;;;;;;;2.87;81.18;101660.81;5033464;28;20388;-74
2023/01/29 08:19:35;;;;;;;11.32;6.47;;;;;;;2.89;81.12;101664.16;5031079;28;20041;-74
2023/01/29 08:22:02;;;;;;;12.07;6.63;;;;;;;2.90;81.15;101667.56;5031580;28;20033;-74
2023/01/29 08:24:27;;;;;;;12.60;7.18;;;;;;;2.89;81.25;101665.91;5038943;28;20025;-73
2023/01/29 08:26:53;;;;;;;11.13;6.38;;;;;;;2.90;81.10;101663.28;5032275;28;20087;-73
2023/01/29 08:29:18;;;;;;;13.02;6.85;;;;;;;2.90;81.31;101662.44;5034895;28;20025;-73
2023/01/29 08:31:43;;;;;;;14.50;6.88;;;;;;;2.94;80.44;101666.53;5026667;28;20053;-73
2023/01/29 08:34:09;;;;;;;13.95;6.75;;;;;;;3.03;79.85;101663.56;5033528;28;20063;-73
2023/01/29 08:36:34;;;;;;;12.05;6.25;;;;;;;3.08;78.99;101656.50;5026053;28;20037;-74
2023/01/29 08:39:00;;;;;;;11.20;6.28;;;;;;;3.15;78.40;101654.47;5034251;28;20052;-73
2023/01/29 08:41:26;;;;;;;10.98;5.78;;;;;;;3.18;78.39;101646.63;5032387;28;20423;-73
2023/01/29 08:43:51;;;;;;;10.50;5.50;;;;;;;3.17;78.09;101640.63;5030089;28;20026;-72
2023/01/29 08:46:16;;;;;;;9.80;5.68;;;;;;;3.18;78.08;101647.47;5024157;28;20044;-72
2023/01/29 08:48:42;;;;;;;12.73;6.78;;;;;;;3.23;77.99;101639.53;5029690;28;20103;-74
2023/01/29 08:51:07;;;;;;;9.82;6.35;;;;;;;3.27;77.63;101649.63;5027489;28;20075;-73
2023/01/29 08:53:33;;;;;;;11.98;5.88;;;;;;;3.31;77.56;101652.88;5033290;28;20052;-73
2023/01/29 08:55:58;;;;;;;9.40;5.05;;;;;;;3.31;77.61;101658.84;5030631;28;20036;-73
2023/01/29 08:58:24;;;;;;;8.23;4.75;;;;;;;3.31;77.82;101655.44;5027294;28;20029;-72
2023/01/29 09:00:49;;;;;;;7.95;4.85;;;;;;;3.30;77.26;101658.97;5034364;28;20037;-74
2023/01/29 09:03:15;;;;;;;8.18;5.20;;;;;;;3.30;77.49;101652.06;5028761;28;20439;-75
2023/01/29 09:05:40;;;;;;;8.13;4.97;;;;;;;3.36;77.06;101650.94;5029666;28;20029;-75
2023/01/29 09:08:07;;;;;;;8.18;4.65;;;;;;;3.43;76.68;101651.47;5029743;28;20084;-72
2023/01/29 09:10:33;;;;;;;10.40;4.78;;;;;;;3.48;75.49;101659.84;5029714;28;20424;-73
2023/01/29 09:12:59;;;;;;;8.35;4.55;;;;;;;3.55;75.08;101659.50;5029387;28;20048;-73
2023/01/29 09:15:25;;;;;;;8.38;4.88;;;;;;;3.59;74.31;101658.44;5027609;28;20037;-72
2023/01/29 09:17:50;;;;;;;8.88;4.72;;;;;;;3.60;73.44;101661.88;5027720;28;20416;-74
2023/01/29 09:20:17;;;;;;;6.53;4.00;;;;;;;3.65;73.15;101660.75;5027960;28;20049;-74
2023/01/29 09:22:42;;;;;;;8.02;4.55;;;;;;;3.62;72.91;101658.31;5023727;28;20510;-74
2023/01/29 09:25:08;;;;;;;7.55;4.65;;;;;;;3.70;72.37;101646.81;5031976;28;20040;-73
2023/01/29 09:27:34;;;;;;;9.73;4.95;;;;;;;3.76;71.67;101654.25;5027109;28;20083;-72
2023/01/29 09:29:59;;;;;;;7.60;4.07;;;;;;;3.71;72.10;101657.06;5028128;28;20049;-72
2023/01/29 09:32:24;;;;;;;10.45;4.75;;;;;;;3.69;71.96;101655.44;5024074;28;20040;-72
2023/01/29 09:34:50;;;;;;;8.23;4.15;;;;;;;3.75;71.67;101652.59;5030503;28;20072;-72
2023/01/29 09:37:16;;;;;;;7.63;4.40;;;;;;;3.73;72.56;101659.56;5029022;28;20029;-72
2023/01/29 09:39:42;;;;;;;7.60;4.63;;;;;;;3.76;72.00;101660.25;5029205;28;20041;-71
2023/01/29 09:42:22;;;;;;;8.05;4.28;;;;;;;3.84;71.39;101660.69;5040777;28;20444;-71
2023/01/29 09:45:00;;;;;;;7.90;4.45;;;;;;;3.86;72.08;101658.06;5034475;28;20061;-72
2023/01/29 09:47:27;;;;;;;10.75;4.82;;;;;;;3.88;72.21;101664.81;5043184;28;20037;-71
2023/01/29 09:49:55;;;;;;;8.80;5.13;;;;;;;3.88;72.27;101664.81;5034388;28;20064;-72
2023/01/29 09:52:21;;;;;;;6.90;4.15;;;;;;;3.84;72.75;101659.88;5045413;28;20021;-71
2023/01/29 09:54:49;;;;;;;8.52;4.43;;;;;;;3.81;72.97;101657.44;5025522;28;20090;-71
2023/01/29 09:57:22;;;;;;;7.18;4.07;;;;;;;3.80;72.96;101650.59;5031627;28;20044;-72
2023/01/29 09:59:47;;;;;;;8.30;4.80;;;;;;;3.87;72.35;101654.56;5038645;28;20041;-72
2023/01/29 10:02:34;;;;;;;9.05;4.55;;;;;;;4.07;71.67;101653.63;5030607;28;20032;-71
2023/01/29 10:05:11;;;;;;;;;;;;;;;4.15;68.92;101647.19;5034168;28;20041;-71
2023/01/29 10:07:42;;;;;;;;;;;;;;;4.19;69.05;101643.56;5039172;28;19909;-71
2023/01/29 10:10:17;;;;;;;7.78;3.95;;;;;;;4.27;70.91;101638.81;5037384;28;20014;-72
2023/01/29 10:12:48;;;;;;;8.20;4.43;;;;;;;4.33;70.89;101633.38;5035887;28;20396;-72
2023/01/29 10:15:16;;;;;;;6.57;4.05;;;;;;;4.29;71.22;101639.59;5033829;28;20029;-72
2023/01/29 10:18:29;;;;;;;7.57;5.07;;;;;;;4.25;71.41;101637.25;5035898;28;20056;-72
2023/01/29 10:21:16;;;;;;;9.32;5.70;;;;;;;4.24;71.95;101636.44;4998320;28;20546;-72
2023/01/29 10:24:01;;;;;;;7.07;4.57;;;;;;;4.21;71.81;101631.41;4985952;28;20486;-72
2023/01/29 10:26:28;;;;;;;7.15;4.97;;;;;;;4.26;70.89;101621.69;4992173;28;20021;-72
2023/01/29 10:28:56;;;;;;;15.02;4.93;;;;;;;4.32;70.55;101621.38;4990536;28;20042;-72
2023/01/29 10:31:35;;;;;;;10.52;5.03;;;;;;;4.40;69.67;101617.59;4992413;28;20412;-72
2023/01/29 10:34:14;;;;;;;10.75;5.30;;;;;;;4.50;69.86;101616.22;4991912;28;20121;-71
2023/01/29 10:36:46;;;;;;;7.43;4.13;;;;;;;4.50;69.61;101611.06;4984096;28;20030;-72
2023/01/29 10:39:20;;;;;;;9.13;5.10;;;;;;;4.54;70.40;101609.97;4996218;28;20109;-72
2023/01/29 10:42:04;;;;;;;7.38;4.03;;;;;;;4.56;69.93;101603.84;4997944;28;20437;-72
2023/01/29 10:44:49;;;;;;;6.25;4.25;;;;;;;4.55;70.53;101604.75;4995493;28;20034;-71
2023/01/29 10:47:39;;;;;;;8.35;5.32;;;;;;;4.52;70.90;101597.16;5000735;28;20117;-71
2023/01/29 10:50:38;;;;;;;9.23;5.38;;;;;;;4.55;70.56;101593.59;4998209;28;20132;-71
2023/01/29 10:53:29;;;;;;;7.70;4.30;;;;;;;4.56;70.83;101588.34;4998594;28;20092;-70
2023/01/29 10:56:07;;;;;;;9.00;4.90;;;;;;;4.58;70.45;101588.28;4996712;28;20112;-71
2023/01/29 10:58:50;;;;;;;9.05;5.07;;;;;;;4.59;69.28;101579.63;4999131;28;20030;-71
2023/01/29 11:01:16;;;;;;;9.27;4.82;;;;;;;4.65;69.48;101574.97;4997090;28;20061;-71
2023/01/29 11:03:41;;;;;;;10.48;5.30;;;;;;;4.65;69.84;101568.97;4997688;28;20042;-71
2023/01/29 11:06:18;;;;;;;7.45;4.78;;;;;;;4.69;69.68;101569.66;4997987;28;20151;-71
2023/01/29 11:08:50;;;;;;;9.75;4.90;;;;;;;4.74;69.26;101562.47;4994516;28;20038;-71
2023/01/29 11:11:17;;;;;;;8.43;5.30;;;;;;;4.71;68.22;101563.50;4995641;28;20042;-70
2023/01/29 11:13:58;;;;;;;9.75;5.32;;;;;;;4.68;68.66;101558.50;4994501;28;20440;-70
2023/01/29 11:16:26;;;;;;;8.90;5.05;;;;;;;4.82;68.57;101565.50;4992851;28;20088;-71
2023/01/29 11:18:55;;;;;;;7.20;4.70;;;;;;;4.95;68.63;101561.34;4991893;28;20533;-71
2023/01/29 11:21:21;;;;;;;6.30;4.10;;;;;;;5.11;66.32;101557.03;5031634;28;20076;-71
2023/01/29 11:23:46;;;;;;;6.95;4.93;;;;;;;5.13;66.93;101550.03;5032979;28;20493;-70
2023/01/29 11:26:18;;;;;;;8.40;4.93;;;;;;;5.08;67.04;101540.88;5032756;28;20064;-71
2023/01/29 11:28:46;;;;;;;10.23;5.28;;;;;;;4.97;67.42;101539.69;5021516;28;20043;-72
2023/01/29 11:31:22;;;;;;;16.20;4.78;;;;;;;4.91;67.18;101540.03;5023830;28;20791;-72
2023/01/29 11:33:48;;;;;;;;;;;;;;;4.88;66.49;101527.25;5024928;28;20489;-71
2023/01/29 11:36:37;;;;;;;8.85;4.97;;;;;;;4.95;64.69;101531.19;5032541;28;19935;-72
2023/01/29 11:39:08;;;;;;;7.20;4.30;;;;;;;5.00;66.05;101524.03;5028588;28;20156;-73
2023/01/29 11:41:42;;;;;;;7.15;4.15;;;;;;;5.00;66.04;101521.44;5033104;28;20440;-73
2023/01/29 11:44:18;;;;;;;7.10;4.05;;;;;;;5.06;66.20;101522.03;5030814;28;20040;-72
2023/01/29 11:46:43;;;;;;;8.40;4.80;;;;;;;5.26;64.73;101521.75;5028018;28;20025;-72
2023/01/29 11:49:28;;;;;;;7.22;4.50;;;;;;;5.26;65.54;101530.34;5028330;28;20416;-72
2023/01/29 11:51:55;;;;;;;7.90;4.85;;;;;;;5.26;65.69;101519.16;5023448;28;20024;-72
2023/01/29 11:54:27;;;;;;;6.25;3.80;;;;;;;5.24;65.17;101506.34;5034144;28;20033;-72
2023/01/29 11:56:53;;;;;;;14.05;4.82;;;;;;;5.19;66.01;101508.38;5038568;28;20060;-73
2023/01/29 11:59:31;;;;;;;10.50;4.82;;;;;;;5.10;65.88;101506.28;5038098;28;20032;-70
2023/01/29 12:02:25;;;;;;;7.05;3.83;;;;;;;5.08;67.02;101505.53;5034101;28;20060;-70
2023/01/29 12:04:53;;;;;;;6.57;4.13;;;;;;;5.31;66.50;101506.84;5042017;28;20067;-70
2023/01/29 12:07:19;;;;;;;6.93;4.05;;;;;;;5.45;66.02;101506.06;5041577;28;20078;-70
2023/01/29 12:10:02;;;;;;;6.20;3.90;;;;;;;5.48;65.10;101492.97;5036539;28;20033;-69